sensor_id;sensor_type;location;lat;lon;timestamp;temperature;humidity
17956;DHT22;27666;51.498;11.966;2023-03-29T00:00:20;5.80;99.90
17956;DHT22;27666;51.498;11.966;2023-03-29T00:03:06;5.70;99.90
17956;DHT22;27666;51.498;11.966;2023-03-29T00:05:58;5.60;99.90
17956;DHT22;27666;51.498;11.966;2023-03-29T00:08:47;5.60;99.90
17956;DHT22;27666;51.498;11.966;2023-03-29T00:11:38;5.60;99.90
17956;DHT22;27666;51.498;11.966;2023-03-29T00:14:25;5.60;99.90
17956;DHT22;27666;51.498;11.966;2023-03-29T00:17:14;5.60;99.90
17956;DHT22;27666;51.498;11.966;2023-03-29T00:20:01;5.60;99.90
17956;DHT22;27666;51.498;11.966;2023-03-29T00:22:49;5.50;99.90
17956;DHT22;27666;51.498;11.966;2023-03-29T00:25:36;5.50;99.90
17956;DHT22;27666;51.498;11.966;2023-03-29T00:28:23;5.50;99.90
17956;DHT22;27666;51.498;11.966;2023-03-29T00:31:12;5.60;99.90
17956;DHT22;27666;51.498;11.966;2023-03-29T00:34:00;5.60;99.90
17956;DHT22;27666;51.498;11.966;2023-03-29T00:36:46;5.60;99.90
17956;DHT22;27666;51.498;11.966;2023-03-29T00:39:35;5.60;99.90
17956;DHT22;27666;51.498;11.966;2023-03-29T00:42:22;5.70;99.90
17956;DHT22;27666;51.498;11.966;2023-03-29T00:45:16;5.70;99.90
17956;DHT22;27666;51.498;11.966;2023-03-29T00:48:05;5.70;99.90
17956;DHT22;27666;51.498;11.966;2023-03-29T00:50:56;5.70;99.90
17956;DHT22;27666;51.498;11.966;2023-03-29T00:53:48;5.70;99.90
17956;DHT22;27666;51.498;11.966;2023-03-29T00:56:36;5.80;99.90
17956;DHT22;27666;51.498;11.966;2023-03-29T00:59:27;5.70;99.90
17956;DHT22;27666;51.498;11.966;2023-03-29T01:02:20;5.70;99.90
17956;DHT22;27666;51.498;11.966;2023-03-29T01:05:12;5.70;99.90
17956;DHT22;27666;51.498;11.966;2023-03-29T01:08:05;5.70;99.90
17956;DHT22;27666;51.498;11.966;2023-03-29T01:10:57;5.70;99.90
17956;DHT22;27666;51.498;11.966;2023-03-29T01:13:49;5.70;99.90
17956;DHT22;27666;51.498;11.966;2023-03-29T01:16:39;5.60;99.90
17956;DHT22;27666;51.498;11.966;2023-03-29T01:19:30;5.60;99.90
17956;DHT22;27666;51.498;11.966;2023-03-29T01:22:22;5.60;99.90
17956;DHT22;27666;51.498;11.966;2023-03-29T01:25:18;5.60;99.90
17956;DHT22;27666;51.498;11.966;2023-03-29T01:28:10;5.70;99.90
17956;DHT22;27666;51.498;11.966;2023-03-29T01:31:01;5.70;99.90
17956;DHT22;27666;51.498;11.966;2023-03-29T01:33:57;5.70;99.90
17956;DHT22;27666;51.498;11.966;2023-03-29T01:36:49;5.70;99.90
17956;DHT22;27666;51.498;11.966;2023-03-29T01:39:39;5.70;99.90
17956;DHT22;27666;51.498;11.966;2023-03-29T01:42:38;5.70;99.90
17956;DHT22;27666;51.498;11.966;2023-03-29T01:45:33;5.70;99.90
17956;DHT22;27666;51.498;11.966;2023-03-29T01:48:26;5.60;99.90
17956;DHT22;27666;51.498;11.966;2023-03-29T01:51:16;5.60;99.90
17956;DHT22;27666;51.498;11.966;2023-03-29T01:54:10;5.60;99.90
17956;DHT22;27666;51.498;11.966;2023-03-29T01:57:00;5.70;99.90
17956;DHT22;27666;51.498;11.966;2023-03-29T01:59:50;5.70;99.90
17956;DHT22;27666;51.498;11.966;2023-03-29T02:02:40;5.70;99.90
17956;DHT22;27666;51.498;11.966;2023-03-29T02:05:29;5.80;99.90
17956;DHT22;27666;51.498;11.966;2023-03-29T02:08:16;5.70;99.90
17956;DHT22;27666;51.498;11.966;2023-03-29T02:11:04;5.70;99.90
17956;DHT22;27666;51.498;11.966;2023-03-29T02:13:51;5.80;99.90
17956;DHT22;27666;51.498;11.966;2023-03-29T02:16:38;5.70;99.90
17956;DHT22;27666;51.498;11.966;2023-03-29T02:19:26;5.80;99.90
17956;DHT22;27666;51.498;11.966;2023-03-29T02:22:14;5.70;99.90
17956;DHT22;27666;51.498;11.966;2023-03-29T02:25:02;5.70;99.90
17956;DHT22;27666;51.498;11.966;2023-03-29T02:27:51;5.60;99.90
17956;DHT22;27666;51.498;11.966;2023-03-29T02:30:43;5.50;99.90
17956;DHT22;27666;51.498;11.966;2023-03-29T02:33:38;5.60;99.90
17956;DHT22;27666;51.498;11.966;2023-03-29T02:36:32;5.50;99.90
17956;DHT22;27666;51.498;11.966;2023-03-29T02:39:20;5.40;99.90
17956;DHT22;27666;51.498;11.966;2023-03-29T02:42:09;5.40;99.90
17956;DHT22;27666;51.498;11.966;2023-03-29T02:44:58;5.50;99.90
17956;DHT22;27666;51.498;11.966;2023-03-29T02:47:48;5.50;99.90
17956;DHT22;27666;51.498;11.966;2023-03-29T02:50:37;5.60;99.90
17956;DHT22;27666;51.498;11.966;2023-03-29T02:53:29;5.50;99.90
17956;DHT22;27666;51.498;11.966;2023-03-29T02:56:17;5.50;99.90
17956;DHT22;27666;51.498;11.966;2023-03-29T02:59:04;5.50;99.90
17956;DHT22;27666;51.498;11.966;2023-03-29T03:01:51;5.50;99.90
17956;DHT22;27666;51.498;11.966;2023-03-29T03:04:38;5.50;99.90
17956;DHT22;27666;51.498;11.966;2023-03-29T03:07:25;5.60;99.90
17956;DHT22;27666;51.498;11.966;2023-03-29T03:10:14;5.60;99.90
17956;DHT22;27666;51.498;11.966;2023-03-29T03:13:01;5.60;99.90
17956;DHT22;27666;51.498;11.966;2023-03-29T03:15:48;5.60;99.90
17956;DHT22;27666;51.498;11.966;2023-03-29T03:18:34;5.60;99.90
17956;DHT22;27666;51.498;11.966;2023-03-29T03:21:21;5.60;99.90
17956;DHT22;27666;51.498;11.966;2023-03-29T03:24:07;5.60;99.90
17956;DHT22;27666;51.498;11.966;2023-03-29T03:26:56;5.60;99.90
17956;DHT22;27666;51.498;11.966;2023-03-29T03:29:42;5.70;99.90
17956;DHT22;27666;51.498;11.966;2023-03-29T03:32:29;5.60;99.90
17956;DHT22;27666;51.498;11.966;2023-03-29T03:35:19;5.60;99.90
17956;DHT22;27666;51.498;11.966;2023-03-29T03:38:06;5.70;99.90
17956;DHT22;27666;51.498;11.966;2023-03-29T03:40:53;5.70;99.90
17956;DHT22;27666;51.498;11.966;2023-03-29T03:43:41;5.70;99.90
17956;DHT22;27666;51.498;11.966;2023-03-29T03:46:32;5.70;99.90
17956;DHT22;27666;51.498;11.966;2023-03-29T03:49:19;5.80;99.90
17956;DHT22;27666;51.498;11.966;2023-03-29T03:52:06;5.80;99.90
17956;DHT22;27666;51.498;11.966;2023-03-29T03:54:55;5.70;99.90
17956;DHT22;27666;51.498;11.966;2023-03-29T03:57:42;5.80;99.90
17956;DHT22;27666;51.498;11.966;2023-03-29T04:00:30;5.70;99.90
17956;DHT22;27666;51.498;11.966;2023-03-29T04:03:17;5.70;99.90
17956;DHT22;27666;51.498;11.966;2023-03-29T04:06:04;5.70;99.90
17956;DHT22;27666;51.498;11.966;2023-03-29T04:08:51;5.80;99.90
17956;DHT22;27666;51.498;11.966;2023-03-29T04:11:38;5.80;99.90
17956;DHT22;27666;51.498;11.966;2023-03-29T04:14:25;5.90;99.90
17956;DHT22;27666;51.498;11.966;2023-03-29T04:17:13;5.90;99.90
17956;DHT22;27666;51.498;11.966;2023-03-29T04:20:00;5.80;99.90
17956;DHT22;27666;51.498;11.966;2023-03-29T04:22:54;5.90;99.90
17956;DHT22;27666;51.498;11.966;2023-03-29T04:25:41;5.90;99.90
17956;DHT22;27666;51.498;11.966;2023-03-29T04:28:27;5.90;99.90
17956;DHT22;27666;51.498;11.966;2023-03-29T04:31:14;5.90;99.90
17956;DHT22;27666;51.498;11.966;2023-03-29T04:34:02;5.90;99.90
17956;DHT22;27666;51.498;11.966;2023-03-29T04:36:49;5.90;99.90
17956;DHT22;27666;51.498;11.966;2023-03-29T04:39:35;5.90;99.90
17956;DHT22;27666;51.498;11.966;2023-03-29T04:42:23;6.00;99.90
17956;DHT22;27666;51.498;11.966;2023-03-29T04:45:10;5.80;99.90
17956;DHT22;27666;51.498;11.966;2023-03-29T04:47:58;5.80;99.90
17956;DHT22;27666;51.498;11.966;2023-03-29T04:50:47;5.90;99.90
17956;DHT22;27666;51.498;11.966;2023-03-29T04:53:34;5.90;99.90
17956;DHT22;27666;51.498;11.966;2023-03-29T04:56:21;6.00;99.90
17956;DHT22;27666;51.498;11.966;2023-03-29T04:59:08;5.90;99.90
17956;DHT22;27666;51.498;11.966;2023-03-29T05:01:54;5.80;99.90
17956;DHT22;27666;51.498;11.966;2023-03-29T05:04:41;5.90;99.90
17956;DHT22;27666;51.498;11.966;2023-03-29T05:07:28;5.80;99.90
17956;DHT22;27666;51.498;11.966;2023-03-29T05:10:16;5.90;99.90
17956;DHT22;27666;51.498;11.966;2023-03-29T05:13:03;6.00;99.90
17956;DHT22;27666;51.498;11.966;2023-03-29T05:15:50;6.00;99.90
17956;DHT22;27666;51.498;11.966;2023-03-29T05:18:37;6.10;99.90
17956;DHT22;27666;51.498;11.966;2023-03-29T05:21:24;6.00;99.90
17956;DHT22;27666;51.498;11.966;2023-03-29T05:24:13;6.10;99.90
17956;DHT22;27666;51.498;11.966;2023-03-29T05:27:00;6.20;99.90
17956;DHT22;27666;51.498;11.966;2023-03-29T05:29:48;6.30;99.90
17956;DHT22;27666;51.498;11.966;2023-03-29T05:32:35;6.20;99.90
17956;DHT22;27666;51.498;11.966;2023-03-29T05:35:22;6.30;99.90
17956;DHT22;27666;51.498;11.966;2023-03-29T05:38:10;6.30;99.90
17956;DHT22;27666;51.498;11.966;2023-03-29T05:40:59;6.20;99.90
17956;DHT22;27666;51.498;11.966;2023-03-29T05:43:46;6.20;99.90
17956;DHT22;27666;51.498;11.966;2023-03-29T05:46:33;6.30;99.90
17956;DHT22;27666;51.498;11.966;2023-03-29T05:49:19;6.20;99.90
17956;DHT22;27666;51.498;11.966;2023-03-29T05:52:06;6.20;99.90
17956;DHT22;27666;51.498;11.966;2023-03-29T05:54:52;6.20;99.90
17956;DHT22;27666;51.498;11.966;2023-03-29T05:57:41;6.30;99.90
17956;DHT22;27666;51.498;11.966;2023-03-29T06:00:28;6.40;99.90
17956;DHT22;27666;51.498;11.966;2023-03-29T06:03:18;6.40;99.90
17956;DHT22;27666;51.498;11.966;2023-03-29T06:06:07;6.30;99.90
17956;DHT22;27666;51.498;11.966;2023-03-29T06:08:54;6.30;99.90
17956;DHT22;27666;51.498;11.966;2023-03-29T06:11:40;6.30;99.90
17956;DHT22;27666;51.498;11.966;2023-03-29T06:14:28;6.40;99.90
17956;DHT22;27666;51.498;11.966;2023-03-29T06:17:15;6.40;99.90
17956;DHT22;27666;51.498;11.966;2023-03-29T06:20:04;6.50;99.90
17956;DHT22;27666;51.498;11.966;2023-03-29T06:22:54;6.40;99.90
17956;DHT22;27666;51.498;11.966;2023-03-29T06:25:42;6.40;99.90
17956;DHT22;27666;51.498;11.966;2023-03-29T06:28:28;6.40;99.90
17956;DHT22;27666;51.498;11.966;2023-03-29T06:31:16;6.50;99.90
17956;DHT22;27666;51.498;11.966;2023-03-29T06:34:03;6.40;99.90
17956;DHT22;27666;51.498;11.966;2023-03-29T06:36:52;6.40;99.90
17956;DHT22;27666;51.498;11.966;2023-03-29T06:39:39;6.40;99.90
17956;DHT22;27666;51.498;11.966;2023-03-29T06:42:26;6.40;99.90
17956;DHT22;27666;51.498;11.966;2023-03-29T06:45:15;6.60;99.90
17956;DHT22;27666;51.498;11.966;2023-03-29T06:48:04;6.70;99.90
17956;DHT22;27666;51.498;11.966;2023-03-29T06:50:52;6.90;99.90
17956;DHT22;27666;51.498;11.966;2023-03-29T06:53:39;7.00;99.90
17956;DHT22;27666;51.498;11.966;2023-03-29T06:56:25;7.00;99.90
17956;DHT22;27666;51.498;11.966;2023-03-29T06:59:14;7.10;99.90
17956;DHT22;27666;51.498;11.966;2023-03-29T07:02:00;7.20;99.90
17956;DHT22;27666;51.498;11.966;2023-03-29T07:04:48;7.20;99.90
17956;DHT22;27666;51.498;11.966;2023-03-29T07:07:36;7.30;99.90
17956;DHT22;27666;51.498;11.966;2023-03-29T07:10:39;7.30;99.90
17956;DHT22;27666;51.498;11.966;2023-03-29T07:13:27;7.40;99.90
17956;DHT22;27666;51.498;11.966;2023-03-29T07:16:14;7.50;99.90
17956;DHT22;27666;51.498;11.966;2023-03-29T07:19:02;7.60;99.90
17956;DHT22;27666;51.498;11.966;2023-03-29T07:21:50;7.60;99.90
17956;DHT22;27666;51.498;11.966;2023-03-29T07:24:38;7.70;99.90
17956;DHT22;27666;51.498;11.966;2023-03-29T07:27:25;7.80;99.90
17956;DHT22;27666;51.498;11.966;2023-03-29T07:30:14;7.80;99.90
17956;DHT22;27666;51.498;11.966;2023-03-29T07:33:00;7.90;99.90
17956;DHT22;27666;51.498;11.966;2023-03-29T07:35:48;7.90;99.90
17956;DHT22;27666;51.498;11.966;2023-03-29T07:38:36;7.90;99.90
17956;DHT22;27666;51.498;11.966;2023-03-29T07:41:23;7.90;99.90
17956;DHT22;27666;51.498;11.966;2023-03-29T07:44:10;7.90;99.90
17956;DHT22;27666;51.498;11.966;2023-03-29T07:46:56;8.00;99.90
17956;DHT22;27666;51.498;11.966;2023-03-29T07:49:44;8.10;99.90
17956;DHT22;27666;51.498;11.966;2023-03-29T07:52:35;8.00;99.90
17956;DHT22;27666;51.498;11.966;2023-03-29T07:55:26;8.10;99.90
17956;DHT22;27666;51.498;11.966;2023-03-29T07:58:12;8.20;99.90
17956;DHT22;27666;51.498;11.966;2023-03-29T08:00:59;8.30;99.90
17956;DHT22;27666;51.498;11.966;2023-03-29T08:03:46;8.30;99.90
17956;DHT22;27666;51.498;11.966;2023-03-29T08:06:33;8.50;99.90
17956;DHT22;27666;51.498;11.966;2023-03-29T08:09:19;8.70;99.90
17956;DHT22;27666;51.498;11.966;2023-03-29T08:12:08;8.70;99.90
17956;DHT22;27666;51.498;11.966;2023-03-29T08:14:54;8.80;99.90
17956;DHT22;27666;51.498;11.966;2023-03-29T08:17:41;8.70;99.90
17956;DHT22;27666;51.498;11.966;2023-03-29T08:20:28;8.80;99.90
17956;DHT22;27666;51.498;11.966;2023-03-29T08:23:14;8.80;99.90
17956;DHT22;27666;51.498;11.966;2023-03-29T08:26:03;8.80;99.90
17956;DHT22;27666;51.498;11.966;2023-03-29T08:28:51;8.80;99.90
17956;DHT22;27666;51.498;11.966;2023-03-29T08:31:38;8.90;99.90
17956;DHT22;27666;51.498;11.966;2023-03-29T08:34:24;8.90;99.90
17956;DHT22;27666;51.498;11.966;2023-03-29T08:37:11;8.90;99.90
17956;DHT22;27666;51.498;11.966;2023-03-29T08:39:57;8.90;99.90
17956;DHT22;27666;51.498;11.966;2023-03-29T08:43:17;8.90;99.90
17956;DHT22;27666;51.498;11.966;2023-03-29T08:46:13;9.00;99.90
17956;DHT22;27666;51.498;11.966;2023-03-29T08:49:05;9.00;99.90
17956;DHT22;27666;51.498;11.966;2023-03-29T08:51:56;9.00;99.90
17956;DHT22;27666;51.498;11.966;2023-03-29T08:54:47;9.20;99.90
17956;DHT22;27666;51.498;11.966;2023-03-29T08:57:40;9.40;99.90
17956;DHT22;27666;51.498;11.966;2023-03-29T09:00:33;9.40;99.90
17956;DHT22;27666;51.498;11.966;2023-03-29T09:03:25;9.60;99.90
17956;DHT22;27666;51.498;11.966;2023-03-29T09:06:15;9.40;99.90
17956;DHT22;27666;51.498;11.966;2023-03-29T09:09:13;9.70;99.90
17956;DHT22;27666;51.498;11.966;2023-03-29T09:12:08;9.60;99.90
17956;DHT22;27666;51.498;11.966;2023-03-29T09:15:04;9.60;99.90
17956;DHT22;27666;51.498;11.966;2023-03-29T09:18:03;9.60;99.90
17956;DHT22;27666;51.498;11.966;2023-03-29T09:20:57;9.70;99.90
17956;DHT22;27666;51.498;11.966;2023-03-29T09:23:56;9.90;99.90
17956;DHT22;27666;51.498;11.966;2023-03-29T09:26:47;10.00;99.90
17956;DHT22;27666;51.498;11.966;2023-03-29T09:29:49;10.20;99.90
17956;DHT22;27666;51.498;11.966;2023-03-29T09:32:41;10.40;99.90
17956;DHT22;27666;51.498;11.966;2023-03-29T09:35:32;10.50;99.90
17956;DHT22;27666;51.498;11.966;2023-03-29T09:38:21;10.70;99.90
17956;DHT22;27666;51.498;11.966;2023-03-29T09:41:16;10.90;99.90
17956;DHT22;27666;51.498;11.966;2023-03-29T09:44:08;11.20;99.90
17956;DHT22;27666;51.498;11.966;2023-03-29T09:47:17;11.50;99.90
17956;DHT22;27666;51.498;11.966;2023-03-29T09:50:10;11.90;99.90
17956;DHT22;27666;51.498;11.966;2023-03-29T09:53:15;11.90;99.90
17956;DHT22;27666;51.498;11.966;2023-03-29T09:56:05;11.90;99.90
17956;DHT22;27666;51.498;11.966;2023-03-29T09:58:52;12.10;99.90
17956;DHT22;27666;51.498;11.966;2023-03-29T10:01:41;12.20;99.90
17956;DHT22;27666;51.498;11.966;2023-03-29T10:04:29;12.20;99.90
17956;DHT22;27666;51.498;11.966;2023-03-29T10:07:18;12.10;99.90
17956;DHT22;27666;51.498;11.966;2023-03-29T10:10:07;12.10;99.90
17956;DHT22;27666;51.498;11.966;2023-03-29T10:12:59;12.00;99.90
17956;DHT22;27666;51.498;11.966;2023-03-29T10:15:56;12.10;99.90
17956;DHT22;27666;51.498;11.966;2023-03-29T10:18:43;12.20;99.90
17956;DHT22;27666;51.498;11.966;2023-03-29T10:21:30;12.20;99.90
17956;DHT22;27666;51.498;11.966;2023-03-29T10:24:21;12.00;99.90
17956;DHT22;27666;51.498;11.966;2023-03-29T10:27:09;12.00;99.90
17956;DHT22;27666;51.498;11.966;2023-03-29T10:29:59;11.90;99.90
17956;DHT22;27666;51.498;11.966;2023-03-29T10:32:53;11.90;99.90
17956;DHT22;27666;51.498;11.966;2023-03-29T10:35:42;12.00;99.90
17956;DHT22;27666;51.498;11.966;2023-03-29T10:38:29;12.20;99.90
17956;DHT22;27666;51.498;11.966;2023-03-29T10:41:16;12.40;99.90
17956;DHT22;27666;51.498;11.966;2023-03-29T10:44:05;12.80;99.90
17956;DHT22;27666;51.498;11.966;2023-03-29T10:46:54;13.20;99.90
17956;DHT22;27666;51.498;11.966;2023-03-29T10:49:42;13.00;99.90
17956;DHT22;27666;51.498;11.966;2023-03-29T10:52:29;13.00;99.90
17956;DHT22;27666;51.498;11.966;2023-03-29T10:55:15;13.20;99.90
17956;DHT22;27666;51.498;11.966;2023-03-29T10:58:12;13.40;99.90
17956;DHT22;27666;51.498;11.966;2023-03-29T11:01:02;13.50;99.90
17956;DHT22;27666;51.498;11.966;2023-03-29T11:04:05;13.30;99.90
17956;DHT22;27666;51.498;11.966;2023-03-29T11:07:05;13.60;99.90
17956;DHT22;27666;51.498;11.966;2023-03-29T11:10:04;13.70;99.90
17956;DHT22;27666;51.498;11.966;2023-03-29T11:12:56;13.50;99.90
17956;DHT22;27666;51.498;11.966;2023-03-29T11:15:56;13.40;99.90
17956;DHT22;27666;51.498;11.966;2023-03-29T11:19:01;13.30;99.90
17956;DHT22;27666;51.498;11.966;2023-03-29T11:21:54;13.30;99.90
17956;DHT22;27666;51.498;11.966;2023-03-29T11:25:01;13.20;99.90
17956;DHT22;27666;51.498;11.966;2023-03-29T11:27:58;13.50;99.90
17956;DHT22;27666;51.498;11.966;2023-03-29T11:30:49;13.60;99.90
17956;DHT22;27666;51.498;11.966;2023-03-29T11:33:49;13.70;99.90
17956;DHT22;27666;51.498;11.966;2023-03-29T11:36:45;13.70;99.90
17956;DHT22;27666;51.498;11.966;2023-03-29T11:39:43;13.70;99.90
17956;DHT22;27666;51.498;11.966;2023-03-29T11:42:34;13.80;99.90
17956;DHT22;27666;51.498;11.966;2023-03-29T11:45:28;13.70;99.90
17956;DHT22;27666;51.498;11.966;2023-03-29T11:48:19;13.80;99.90
17956;DHT22;27666;51.498;11.966;2023-03-29T11:51:12;14.00;99.90
17956;DHT22;27666;51.498;11.966;2023-03-29T11:54:08;14.30;99.90
17956;DHT22;27666;51.498;11.966;2023-03-29T11:57:03;14.20;99.90
17956;DHT22;27666;51.498;11.966;2023-03-29T11:59:55;14.20;99.90
17956;DHT22;27666;51.498;11.966;2023-03-29T12:02:51;14.10;99.90
17956;DHT22;27666;51.498;11.966;2023-03-29T12:05:44;14.10;99.90
17956;DHT22;27666;51.498;11.966;2023-03-29T12:08:36;14.20;99.90
17956;DHT22;27666;51.498;11.966;2023-03-29T12:11:29;14.00;99.90
17956;DHT22;27666;51.498;11.966;2023-03-29T12:14:21;14.00;99.90
17956;DHT22;27666;51.498;11.966;2023-03-29T12:17:15;14.00;99.90
17956;DHT22;27666;51.498;11.966;2023-03-29T12:20:09;14.10;99.90
17956;DHT22;27666;51.498;11.966;2023-03-29T12:22:57;14.10;99.90
17956;DHT22;27666;51.498;11.966;2023-03-29T12:25:52;13.90;99.90
17956;DHT22;27666;51.498;11.966;2023-03-29T12:29:06;14.00;99.90
17956;DHT22;27666;51.498;11.966;2023-03-29T12:31:59;13.90;99.90
17956;DHT22;27666;51.498;11.966;2023-03-29T12:35:00;13.80;99.90
17956;DHT22;27666;51.498;11.966;2023-03-29T12:37:59;13.80;99.90
17956;DHT22;27666;51.498;11.966;2023-03-29T12:40:54;13.70;99.90
17956;DHT22;27666;51.498;11.966;2023-03-29T12:43:45;13.90;99.90
17956;DHT22;27666;51.498;11.966;2023-03-29T12:46:34;13.90;99.90
17956;DHT22;27666;51.498;11.966;2023-03-29T12:49:27;14.10;99.90
17956;DHT22;27666;51.498;11.966;2023-03-29T12:52:22;14.10;99.90
17956;DHT22;27666;51.498;11.966;2023-03-29T12:55:28;14.20;99.90
17956;DHT22;27666;51.498;11.966;2023-03-29T12:58:40;14.30;99.90
17956;DHT22;27666;51.498;11.966;2023-03-29T13:01:29;14.60;99.90
17956;DHT22;27666;51.498;11.966;2023-03-29T13:04:34;14.50;99.90
17956;DHT22;27666;51.498;11.966;2023-03-29T13:07:31;14.50;99.90
17956;DHT22;27666;51.498;11.966;2023-03-29T13:10:36;14.50;99.90
17956;DHT22;27666;51.498;11.966;2023-03-29T13:13:27;14.50;99.90
17956;DHT22;27666;51.498;11.966;2023-03-29T13:16:16;14.40;99.90
17956;DHT22;27666;51.498;11.966;2023-03-29T13:19:15;14.50;99.90
17956;DHT22;27666;51.498;11.966;2023-03-29T13:22:17;14.50;99.90
17956;DHT22;27666;51.498;11.966;2023-03-29T13:25:24;14.60;99.90
17956;DHT22;27666;51.498;11.966;2023-03-29T13:28:20;14.80;99.90
17956;DHT22;27666;51.498;11.966;2023-03-29T13:31:18;14.70;99.90
17956;DHT22;27666;51.498;11.966;2023-03-29T13:34:20;14.70;99.90
17956;DHT22;27666;51.498;11.966;2023-03-29T13:37:23;14.80;99.90
17956;DHT22;27666;51.498;11.966;2023-03-29T13:40:29;14.80;99.90
17956;DHT22;27666;51.498;11.966;2023-03-29T13:43:23;14.70;99.90
17956;DHT22;27666;51.498;11.966;2023-03-29T13:46:21;14.90;99.90
17956;DHT22;27666;51.498;11.966;2023-03-29T13:49:15;15.20;99.90
17956;DHT22;27666;51.498;11.966;2023-03-29T13:52:11;15.20;99.90
17956;DHT22;27666;51.498;11.966;2023-03-29T13:55:04;15.20;99.90
17956;DHT22;27666;51.498;11.966;2023-03-29T13:57:56;15.40;99.90
17956;DHT22;27666;51.498;11.966;2023-03-29T14:00:47;15.30;99.90
17956;DHT22;27666;51.498;11.966;2023-03-29T14:03:41;15.40;99.90
17956;DHT22;27666;51.498;11.966;2023-03-29T14:06:32;15.40;99.90
17956;DHT22;27666;51.498;11.966;2023-03-29T14:09:22;15.50;99.90
17956;DHT22;27666;51.498;11.966;2023-03-29T14:12:13;15.40;99.90
17956;DHT22;27666;51.498;11.966;2023-03-29T14:15:01;15.50;99.90
17956;DHT22;27666;51.498;11.966;2023-03-29T14:17:52;15.30;99.90
17956;DHT22;27666;51.498;11.966;2023-03-29T14:20:42;15.10;99.90
17956;DHT22;27666;51.498;11.966;2023-03-29T14:23:31;15.00;99.90
17956;DHT22;27666;51.498;11.966;2023-03-29T14:26:23;14.90;99.90
17956;DHT22;27666;51.498;11.966;2023-03-29T14:29:12;14.90;99.90
17956;DHT22;27666;51.498;11.966;2023-03-29T14:32:08;15.00;99.90
17956;DHT22;27666;51.498;11.966;2023-03-29T14:34:55;15.10;99.90
17956;DHT22;27666;51.498;11.966;2023-03-29T14:37:43;15.00;99.90
17956;DHT22;27666;51.498;11.966;2023-03-29T14:40:31;14.90;99.90
17956;DHT22;27666;51.498;11.966;2023-03-29T14:43:20;14.90;99.90
17956;DHT22;27666;51.498;11.966;2023-03-29T14:46:10;14.70;99.90
17956;DHT22;27666;51.498;11.966;2023-03-29T14:48:58;14.60;99.90
17956;DHT22;27666;51.498;11.966;2023-03-29T14:51:45;14.50;99.90
17956;DHT22;27666;51.498;11.966;2023-03-29T14:54:32;14.40;99.90
17956;DHT22;27666;51.498;11.966;2023-03-29T14:57:22;14.40;99.90
17956;DHT22;27666;51.498;11.966;2023-03-29T15:00:23;14.30;99.90
17956;DHT22;27666;51.498;11.966;2023-03-29T15:03:14;14.30;99.90
17956;DHT22;27666;51.498;11.966;2023-03-29T15:06:03;14.30;99.90
17956;DHT22;27666;51.498;11.966;2023-03-29T15:08:50;14.40;99.90
17956;DHT22;27666;51.498;11.966;2023-03-29T15:11:52;14.30;99.90
17956;DHT22;27666;51.498;11.966;2023-03-29T15:14:39;14.40;99.90
17956;DHT22;27666;51.498;11.966;2023-03-29T15:17:30;14.40;99.90
17956;DHT22;27666;51.498;11.966;2023-03-29T15:20:38;14.50;99.90
17956;DHT22;27666;51.498;11.966;2023-03-29T15:23:25;14.60;99.90
17956;DHT22;27666;51.498;11.966;2023-03-29T15:26:13;14.50;99.90
17956;DHT22;27666;51.498;11.966;2023-03-29T15:29:04;14.50;99.90
17956;DHT22;27666;51.498;11.966;2023-03-29T15:31:56;14.50;99.90
17956;DHT22;27666;51.498;11.966;2023-03-29T15:34:43;14.50;99.90
17956;DHT22;27666;51.498;11.966;2023-03-29T15:37:31;14.40;99.90
17956;DHT22;27666;51.498;11.966;2023-03-29T15:40:21;14.30;99.90
17956;DHT22;27666;51.498;11.966;2023-03-29T15:43:09;14.20;99.90
17956;DHT22;27666;51.498;11.966;2023-03-29T15:45:56;14.00;99.90
17956;DHT22;27666;51.498;11.966;2023-03-29T15:48:44;13.90;99.90
17956;DHT22;27666;51.498;11.966;2023-03-29T15:51:30;13.80;99.90
17956;DHT22;27666;51.498;11.966;2023-03-29T15:54:18;13.80;99.90
17956;DHT22;27666;51.498;11.966;2023-03-29T15:57:06;13.70;99.90
17956;DHT22;27666;51.498;11.966;2023-03-29T15:59:57;13.60;99.90
17956;DHT22;27666;51.498;11.966;2023-03-29T16:02:44;13.50;99.90
17956;DHT22;27666;51.498;11.966;2023-03-29T16:05:31;13.40;99.90
17956;DHT22;27666;51.498;11.966;2023-03-29T16:08:19;13.40;99.90
17956;DHT22;27666;51.498;11.966;2023-03-29T16:11:08;13.30;99.90
17956;DHT22;27666;51.498;11.966;2023-03-29T16:13:56;13.20;99.90
17956;DHT22;27666;51.498;11.966;2023-03-29T16:16:43;13.30;99.90
17956;DHT22;27666;51.498;11.966;2023-03-29T16:19:31;13.20;99.90
17956;DHT22;27666;51.498;11.966;2023-03-29T16:22:17;13.20;99.90
17956;DHT22;27666;51.498;11.966;2023-03-29T16:25:10;13.20;99.90
17956;DHT22;27666;51.498;11.966;2023-03-29T16:27:59;13.10;99.90
17956;DHT22;27666;51.498;11.966;2023-03-29T16:30:45;13.10;99.90
17956;DHT22;27666;51.498;11.966;2023-03-29T16:33:32;13.10;99.90
17956;DHT22;27666;51.498;11.966;2023-03-29T16:36:18;13.10;99.90
17956;DHT22;27666;51.498;11.966;2023-03-29T16:39:05;13.10;99.90
17956;DHT22;27666;51.498;11.966;2023-03-29T16:41:52;13.10;99.90
17956;DHT22;27666;51.498;11.966;2023-03-29T16:44:39;13.00;99.90
17956;DHT22;27666;51.498;11.966;2023-03-29T16:47:26;13.10;99.90
17956;DHT22;27666;51.498;11.966;2023-03-29T16:50:14;13.00;99.90
17956;DHT22;27666;51.498;11.966;2023-03-29T16:53:02;13.00;99.90
17956;DHT22;27666;51.498;11.966;2023-03-29T16:55:48;13.00;99.90
17956;DHT22;27666;51.498;11.966;2023-03-29T16:58:35;13.00;99.90
17956;DHT22;27666;51.498;11.966;2023-03-29T17:01:26;13.00;99.90
17956;DHT22;27666;51.498;11.966;2023-03-29T17:04:13;12.90;99.90
17956;DHT22;27666;51.498;11.966;2023-03-29T17:06:59;12.80;99.90
17956;DHT22;27666;51.498;11.966;2023-03-29T17:09:46;12.80;99.90
17956;DHT22;27666;51.498;11.966;2023-03-29T17:12:32;12.80;99.90
17956;DHT22;27666;51.498;11.966;2023-03-29T17:15:19;12.80;99.90
17956;DHT22;27666;51.498;11.966;2023-03-29T17:18:07;12.70;99.90
17956;DHT22;27666;51.498;11.966;2023-03-29T17:20:55;12.70;99.90
17956;DHT22;27666;51.498;11.966;2023-03-29T17:23:44;12.70;99.90
17956;DHT22;27666;51.498;11.966;2023-03-29T17:26:31;12.70;99.90
17956;DHT22;27666;51.498;11.966;2023-03-29T17:29:17;12.60;99.90
17956;DHT22;27666;51.498;11.966;2023-03-29T17:32:04;12.60;99.90
17956;DHT22;27666;51.498;11.966;2023-03-29T17:34:52;12.50;99.90
17956;DHT22;27666;51.498;11.966;2023-03-29T17:37:38;12.50;99.90
17956;DHT22;27666;51.498;11.966;2023-03-29T17:40:26;12.40;99.90
17956;DHT22;27666;51.498;11.966;2023-03-29T17:43:12;12.40;99.90
17956;DHT22;27666;51.498;11.966;2023-03-29T17:45:59;12.30;99.90
17956;DHT22;27666;51.498;11.966;2023-03-29T17:48:46;12.30;99.90